createdAt,value
2018-04-30T00:01:08.080Z,20.97
2018-04-30T00:03:34.156Z,21.57
2018-04-30T00:06:00.244Z,23.23
2018-04-30T00:08:26.319Z,21.13
2018-04-30T00:10:53.152Z,21.77
2018-04-30T00:13:19.968Z,22.43
2018-04-30T00:15:46.040Z,22.13
2018-04-30T00:18:12.130Z,24.53
2018-04-30T00:20:38.204Z,23.10
2018-04-30T00:23:19.024Z,24.03
2018-04-30T00:26:09.897Z,22.87
2018-04-30T00:28:42.668Z,24.33
2018-04-30T00:31:36.357Z,24.00
2018-04-30T00:37:15.225Z,22.47
2018-04-30T00:39:46.711Z,21.67
2018-04-30T00:42:22.100Z,20.77
2018-04-30T00:44:54.770Z,20.80
2018-04-30T00:47:39.152Z,19.53
2018-04-30T00:50:05.321Z,18.93
2018-04-30T00:58:54.744Z,18.60
2018-04-30T01:04:40.100Z,15.87
2018-04-30T01:07:12.840Z,17.67
2018-04-30T01:09:47.467Z,16.90
2018-04-30T01:12:32.878Z,17.73
2018-04-30T01:14:58.968Z,17.13
2018-04-30T01:17:25.052Z,17.07
2018-04-30T01:19:51.883Z,17.13
2018-04-30T01:22:17.952Z,16.67
2018-04-30T01:24:44.036Z,16.40
2018-04-30T01:27:10.121Z,16.50
2018-04-30T01:29:36.279Z,16.60
2018-04-30T01:32:02.301Z,16.53
2018-04-30T01:34:28.381Z,16.03
2018-04-30T01:36:54.468Z,16.10
2018-04-30T01:39:20.547Z,15.23
2018-04-30T01:41:46.637Z,14.57
2018-04-30T01:44:13.492Z,14.40
2018-04-30T01:46:39.569Z,13.80
2018-04-30T01:49:05.651Z,13.87
2018-04-30T01:51:31.732Z,14.50
2018-04-30T01:53:57.809Z,13.83
2018-04-30T01:56:23.896Z,12.43
2018-04-30T01:58:50.717Z,12.70
2018-04-30T02:01:16.796Z,13.13
2018-04-30T02:03:49.173Z,13.03
2018-04-30T02:06:15.249Z,12.77
2018-04-30T02:08:41.331Z,12.53
2018-04-30T02:11:07.408Z,11.97
2018-04-30T02:13:34.227Z,11.03
2018-04-30T02:16:00.313Z,10.57
2018-04-30T02:18:26.393Z,11.27
2018-04-30T02:20:52.475Z,10.63
2018-04-30T02:23:18.569Z,10.80
2018-04-30T02:25:45.392Z,11.37
2018-04-30T02:28:11.470Z,10.70
2018-04-30T02:30:37.551Z,10.40
2018-04-30T02:33:04.368Z,10.30
2018-04-30T02:35:30.451Z,10.60
2018-04-30T02:37:56.528Z,10.37
2018-04-30T02:40:22.609Z,10.80
2018-04-30T02:42:48.764Z,10.17
2018-04-30T02:45:14.840Z,9.93
2018-04-30T02:47:40.936Z,10.30
2018-04-30T02:50:07.759Z,9.60
2018-04-30T02:52:33.853Z,9.93
2018-04-30T02:54:59.929Z,9.77
2018-04-30T02:57:26.017Z,9.77
2018-04-30T02:59:52.092Z,9.57
2018-04-30T03:02:18.933Z,8.90
2018-04-30T03:04:45.753Z,8.70
2018-04-30T03:07:11.833Z,9.13
2018-04-30T03:09:37.920Z,8.80
2018-04-30T03:12:04.741Z,8.40
2018-04-30T03:14:30.820Z,8.67
2018-04-30T03:16:56.888Z,8.60
2018-04-30T03:19:22.973Z,8.53
2018-04-30T03:21:49.036Z,8.57
2018-04-30T03:24:15.120Z,8.23
2018-04-30T03:26:41.207Z,8.87
2018-04-30T03:29:07.299Z,8.50
2018-04-30T03:31:33.417Z,8.47
2018-04-30T03:33:59.504Z,7.97
2018-04-30T03:36:26.380Z,7.63
2018-04-30T03:38:52.464Z,7.60
2018-04-30T03:41:19.284Z,8.57
2018-04-30T03:43:45.372Z,8.33
2018-04-30T03:46:11.456Z,8.67
2018-04-30T03:48:38.268Z,7.90
2018-04-30T03:51:04.347Z,8.17
2018-04-30T03:53:30.420Z,8.63
2018-04-30T03:55:56.500Z,8.23
2018-04-30T03:58:22.568Z,7.87
2018-04-30T04:01:07.232Z,8.43
2018-04-30T04:03:52.073Z,7.80
2018-04-30T04:09:27.501Z,8.10
2018-04-30T04:11:54.321Z,8.37
2018-04-30T04:14:20.375Z,8.30
2018-04-30T04:16:46.440Z,8.50
2018-04-30T04:19:12.496Z,8.07
2018-04-30T04:21:38.569Z,7.73
2018-04-30T04:24:04.620Z,8.27
2018-04-30T04:26:30.693Z,8.43
2018-04-30T04:28:57.504Z,8.00
2018-04-30T04:31:23.575Z,8.63
2018-04-30T04:33:49.632Z,8.17
2018-04-30T04:36:15.723Z,7.27
2018-04-30T04:38:41.784Z,7.33
2018-04-30T04:41:07.907Z,7.20
2018-04-30T04:43:34.676Z,7.77
2018-04-30T04:46:00.733Z,7.67
2018-04-30T04:48:26.812Z,7.47
2018-04-30T04:50:52.871Z,6.83
2018-04-30T04:53:19.684Z,7.47
2018-04-30T04:55:45.763Z,7.50
2018-04-30T04:58:11.844Z,7.37
2018-04-30T05:00:37.917Z,7.57
2018-04-30T05:03:03.991Z,7.70
2018-04-30T05:05:30.055Z,7.83
2018-04-30T05:07:56.139Z,7.20
2018-04-30T05:10:22.219Z,6.80
2018-04-30T05:12:48.300Z,7.40
2018-04-30T05:15:14.379Z,7.20
2018-04-30T05:17:40.456Z,7.03
2018-04-30T05:20:06.545Z,7.10
2018-04-30T05:22:32.664Z,7.50
2018-04-30T05:24:58.744Z,7.13
2018-04-30T05:27:25.580Z,6.43
2018-04-30T05:29:52.409Z,7.10
2018-04-30T05:32:18.480Z,7.25
2018-04-30T05:34:44.574Z,7.43
2018-04-30T05:37:11.450Z,6.85
2018-04-30T05:39:37.533Z,7.25
2018-04-30T05:42:03.615Z,7.32
2018-04-30T05:44:29.704Z,6.22
2018-04-30T05:46:56.519Z,6.95
2018-04-30T05:49:22.605Z,6.40
2018-04-30T05:51:48.683Z,7.05
2018-04-30T05:54:15.524Z,6.65
2018-04-30T05:56:42.361Z,7.18
2018-04-30T05:59:08.436Z,6.78
2018-04-30T06:01:34.524Z,6.90
2018-04-30T06:04:00.604Z,6.95
2018-04-30T06:06:26.688Z,7.20
2018-04-30T06:08:53.504Z,7.05
2018-04-30T06:11:19.601Z,7.05
2018-04-30T06:13:45.680Z,7.20
2018-04-30T06:16:12.513Z,6.95
2018-04-30T06:18:38.602Z,6.53
2018-04-30T06:21:04.688Z,6.68
2018-04-30T06:23:30.768Z,6.60
2018-04-30T06:25:56.852Z,6.45
2018-04-30T06:28:22.930Z,6.25
2018-04-30T06:30:49.008Z,6.80
2018-04-30T06:33:15.104Z,6.60
2018-04-30T06:35:41.179Z,6.12
2018-04-30T06:38:07.280Z,6.97
2018-04-30T06:40:33.368Z,6.97
2018-04-30T06:43:00.196Z,7.07
2018-04-30T06:45:26.266Z,7.20
2018-04-30T06:47:52.358Z,7.40
2018-04-30T06:50:19.172Z,6.82
2018-04-30T06:52:45.251Z,6.85
2018-04-30T06:55:11.327Z,6.85
2018-04-30T06:57:37.427Z,6.85
2018-04-30T07:00:03.497Z,7.18
2018-04-30T07:02:33.133Z,6.93
2018-04-30T07:08:17.161Z,6.12
2018-04-30T07:10:43.240Z,6.43
2018-04-30T07:13:09.328Z,6.75
2018-04-30T07:15:36.147Z,7.22
2018-04-30T07:18:02.228Z,6.40
2018-04-30T07:20:28.313Z,6.72
2018-04-30T07:22:54.404Z,6.40
2018-04-30T07:25:20.504Z,6.32
2018-04-30T07:27:46.626Z,6.07
2018-04-30T07:30:13.420Z,6.82
2018-04-30T07:32:39.505Z,6.72
2018-04-30T07:35:05.601Z,6.22
2018-04-30T07:37:32.425Z,6.53
2018-04-30T07:40:20.190Z,6.57
2018-04-30T07:42:46.267Z,6.95
2018-04-30T07:45:12.356Z,7.32
2018-04-30T07:47:38.439Z,6.37
2018-04-30T07:50:04.520Z,6.57
2018-04-30T07:52:30.605Z,5.72
2018-04-30T07:54:57.432Z,6.53
2018-04-30T07:57:24.252Z,5.87
2018-04-30T07:59:51.072Z,5.50
2018-04-30T08:02:17.128Z,6.72
2018-04-30T08:04:43.195Z,5.80
2018-04-30T08:07:09.256Z,5.30
2018-04-30T08:09:35.320Z,5.15
2018-04-30T08:12:02.136Z,5.12
2018-04-30T08:14:28.197Z,5.20
2018-04-30T08:16:55.012Z,5.00
2018-04-30T08:19:21.074Z,5.00
2018-04-30T08:21:47.139Z,5.28
2018-04-30T08:24:13.211Z,4.93
2018-04-30T08:26:40.018Z,4.87
2018-04-30T08:29:06.826Z,4.45
2018-04-30T08:31:32.889Z,4.70
2018-04-30T08:37:06.875Z,4.20
2018-04-30T08:39:32.942Z,4.07
2018-04-30T08:41:59.024Z,3.95
2018-04-30T08:44:25.084Z,3.12
2018-04-30T08:46:51.151Z,3.28
2018-04-30T08:49:17.956Z,2.95
2018-04-30T08:51:44.041Z,3.30
2018-04-30T08:54:10.116Z,3.28
2018-04-30T08:56:36.199Z,3.05
2018-04-30T08:59:02.304Z,2.78
2018-04-30T09:01:28.399Z,2.85
2018-04-30T09:03:54.494Z,2.40
2018-04-30T09:06:20.572Z,1.98
2018-04-30T09:08:47.397Z,1.92
2018-04-30T09:11:13.473Z,1.70
2018-04-30T09:13:39.564Z,1.83
2018-04-30T09:16:06.408Z,1.55
2018-04-30T09:18:33.235Z,1.70
2018-04-30T09:20:59.325Z,1.40
2018-04-30T09:23:25.404Z,1.30
2018-04-30T09:25:52.216Z,1.40
2018-04-30T09:28:19.061Z,1.42
2018-04-30T09:30:45.136Z,1.60
2018-04-30T09:33:11.235Z,1.42
2018-04-30T09:35:38.056Z,1.87
2018-04-30T09:38:04.128Z,1.27
2018-04-30T09:40:30.211Z,1.10
2018-04-30T09:42:56.279Z,1.30
2018-04-30T09:45:22.355Z,1.00
2018-04-30T09:47:48.440Z,1.02
2018-04-30T09:50:14.588Z,0.98
2018-04-30T09:52:40.660Z,1.10
2018-04-30T09:55:07.492Z,1.20
2018-04-30T09:57:34.305Z,1.20
2018-04-30T10:00:00.394Z,0.80
2018-04-30T10:02:26.479Z,0.90
2018-04-30T10:04:52.549Z,1.05
2018-04-30T10:07:18.645Z,0.80
2018-04-30T10:09:44.712Z,1.20
2018-04-30T10:12:10.792Z,0.95
2018-04-30T10:14:37.615Z,1.00
2018-04-30T10:17:03.679Z,1.15
2018-04-30T10:19:29.748Z,0.93
2018-04-30T10:21:55.834Z,0.90
2018-04-30T10:24:21.899Z,0.75
2018-04-30T10:26:47.963Z,0.70
2018-04-30T10:29:14.770Z,1.08
2018-04-30T10:31:40.854Z,0.70
2018-04-30T10:34:06.934Z,0.77
2018-04-30T10:36:32.996Z,0.90
2018-04-30T10:38:59.072Z,0.70
2018-04-30T10:41:25.147Z,0.70
2018-04-30T10:43:51.212Z,0.80
2018-04-30T10:46:17.272Z,0.75
2018-04-30T10:48:44.096Z,0.80
2018-04-30T10:51:10.160Z,0.80
2018-04-30T10:53:36.240Z,0.90
2018-04-30T10:56:02.321Z,1.02
2018-04-30T10:58:28.403Z,0.85
2018-04-30T11:00:54.493Z,0.90
2018-04-30T11:03:20.575Z,1.10
2018-04-30T11:05:47.393Z,0.80
2018-04-30T11:08:13.485Z,0.60
2018-04-30T11:10:39.584Z,0.68
2018-04-30T11:13:05.666Z,0.77
2018-04-30T11:15:31.749Z,1.00
2018-04-30T11:17:57.828Z,0.93
2018-04-30T11:20:23.896Z,0.68
2018-04-30T11:22:49.987Z,0.70
2018-04-30T11:25:16.068Z,0.80
2018-04-30T11:27:42.175Z,0.60
2018-04-30T11:30:08.989Z,0.80
2018-04-30T11:32:35.816Z,0.60
2018-04-30T11:35:02.646Z,0.70
2018-04-30T11:37:28.736Z,0.90
2018-04-30T11:39:54.902Z,0.77
2018-04-30T11:42:20.969Z,1.05
2018-04-30T11:44:47.067Z,0.80
2018-04-30T11:47:13.903Z,0.80
2018-04-30T11:49:39.993Z,0.68
2018-04-30T11:52:06.092Z,0.80
2018-04-30T11:54:32.183Z,0.90
2018-04-30T11:56:59.012Z,0.68
2018-04-30T11:59:25.091Z,0.60
2018-04-30T12:01:51.184Z,0.75
2018-04-30T12:04:18.003Z,0.73
2018-04-30T12:06:44.091Z,0.70
2018-04-30T12:09:10.203Z,0.65
2018-04-30T12:11:36.280Z,0.77
2018-04-30T12:14:02.365Z,0.80
2018-04-30T12:16:28.455Z,0.75
2018-04-30T12:18:55.277Z,0.80
2018-04-30T12:21:22.103Z,0.70
2018-04-30T12:23:48.169Z,0.85
2018-04-30T12:26:14.263Z,0.90
2018-04-30T12:28:46.821Z,1.00
2018-04-30T12:31:12.919Z,0.90
2018-04-30T12:33:39.012Z,0.88
2018-04-30T12:36:05.116Z,1.00
2018-04-30T12:38:31.185Z,0.82
2018-04-30T12:40:57.272Z,1.00
2018-04-30T12:43:23.363Z,0.85
2018-04-30T12:45:49.433Z,0.77
2018-04-30T12:48:16.256Z,1.00
2018-04-30T12:50:42.400Z,1.30
2018-04-30T12:53:08.428Z,1.17
2018-04-30T12:55:35.249Z,0.98
2018-04-30T12:58:01.369Z,0.90
2018-04-30T13:00:27.464Z,1.00
2018-04-30T13:02:53.568Z,1.10
2018-04-30T13:05:19.684Z,0.95
2018-04-30T13:07:45.750Z,0.93
2018-04-30T13:10:11.833Z,1.10
2018-04-30T13:12:38.674Z,0.90
2018-04-30T13:15:05.508Z,0.90
2018-04-30T13:17:32.356Z,0.80
2018-04-30T13:19:58.432Z,1.40
2018-04-30T13:22:24.521Z,1.10
2018-04-30T13:24:51.331Z,0.88
2018-04-30T13:27:17.395Z,0.80
2018-04-30T13:29:44.208Z,0.80
2018-04-30T13:32:10.274Z,0.77
2018-04-30T13:34:36.349Z,0.80
2018-04-30T13:37:02.414Z,0.90
2018-04-30T13:39:28.491Z,1.02
2018-04-30T13:41:54.556Z,0.75
2018-04-30T13:44:21.379Z,1.00
2018-04-30T13:46:47.440Z,0.90
2018-04-30T13:49:13.512Z,1.00
2018-04-30T13:51:39.574Z,0.80
2018-04-30T13:54:06.394Z,0.90
2018-04-30T13:56:32.472Z,0.80
2018-04-30T13:58:58.577Z,0.95
2018-04-30T14:01:24.657Z,0.90
2018-04-30T14:03:50.775Z,0.90
2018-04-30T14:06:16.860Z,0.70
2018-04-30T14:08:42.928Z,1.00
2018-04-30T14:11:09.011Z,0.70
2018-04-30T14:13:35.087Z,0.85
2018-04-30T14:16:01.220Z,0.98
2018-04-30T14:18:27.300Z,0.70
2018-04-30T14:20:53.385Z,0.85
2018-04-30T14:23:19.460Z,0.85
2018-04-30T14:25:45.545Z,1.20
2018-04-30T14:28:12.359Z,0.80
2018-04-30T14:30:38.460Z,0.80
2018-04-30T14:33:04.549Z,1.00
2018-04-30T14:35:30.628Z,1.00
2018-04-30T14:37:56.716Z,0.90
2018-04-30T14:40:22.800Z,0.90
2018-04-30T14:42:48.891Z,0.82
2018-04-30T14:45:14.968Z,0.90
2018-04-30T14:47:41.801Z,0.95
2018-04-30T14:50:08.623Z,0.95
2018-04-30T14:52:34.754Z,1.10
2018-04-30T14:55:00.799Z,1.33
2018-04-30T14:57:27.634Z,2.53
2018-04-30T14:59:53.708Z,59.42
2018-04-30T15:02:19.803Z,44.50
2018-04-30T15:04:46.616Z,96.03
2018-04-30T15:07:13.460Z,4.68
2018-04-30T15:09:39.539Z,2.87
2018-04-30T15:12:05.623Z,1.00
2018-04-30T15:14:31.707Z,1.08
2018-04-30T15:16:57.788Z,0.80
2018-04-30T15:19:24.653Z,0.88
2018-04-30T15:21:51.447Z,0.80
2018-04-30T15:24:17.528Z,0.88
2018-04-30T15:26:43.611Z,0.90
2018-04-30T15:29:10.440Z,1.27
2018-04-30T15:31:36.516Z,0.93
2018-04-30T15:34:02.605Z,1.00
2018-04-30T15:36:29.424Z,1.17
2018-04-30T15:38:55.512Z,0.90
2018-04-30T15:41:21.591Z,1.50
2018-04-30T15:43:47.677Z,1.15
2018-04-30T15:46:13.757Z,1.02
2018-04-30T15:48:40.636Z,1.20
2018-04-30T15:51:06.693Z,1.30
2018-04-30T15:53:32.776Z,1.20
2018-04-30T15:55:58.877Z,1.70
2018-04-30T15:58:25.711Z,5.32
2018-04-30T16:00:52.544Z,2.42
2018-04-30T16:03:18.628Z,1.10
2018-04-30T16:05:44.708Z,1.30
2018-04-30T16:08:11.529Z,1.23
2018-04-30T16:10:37.617Z,1.25
2018-04-30T16:13:03.681Z,0.90
2018-04-30T16:15:29.795Z,1.12
2018-04-30T16:17:55.876Z,1.10
2018-04-30T16:20:21.974Z,1.50
2018-04-30T16:22:48.037Z,1.50
2018-04-30T16:25:14.124Z,1.80
2018-04-30T16:27:40.950Z,1.52
2018-04-30T16:30:07.008Z,1.40
2018-04-30T16:32:33.097Z,1.50
2018-04-30T16:34:59.916Z,1.27
2018-04-30T16:37:26.015Z,1.40
2018-04-30T16:39:52.103Z,1.12
2018-04-30T16:42:18.184Z,1.27
2018-04-30T16:44:44.267Z,1.40
2018-04-30T16:47:11.150Z,1.50
2018-04-30T16:49:37.940Z,1.65
2018-04-30T16:52:04.028Z,2.50
2018-04-30T16:54:30.108Z,2.47
2018-04-30T16:56:56.929Z,2.70
2018-04-30T16:59:22.994Z,2.15
2018-04-30T17:01:49.149Z,2.03
2018-04-30T17:04:15.270Z,2.05
2018-04-30T17:06:41.344Z,2.08
2018-04-30T17:09:08.154Z,2.33
2018-04-30T17:11:34.243Z,2.12
2018-04-30T17:14:00.324Z,2.40
2018-04-30T17:16:26.399Z,2.40
2018-04-30T17:18:52.485Z,2.85
2018-04-30T17:21:18.593Z,2.45
2018-04-30T17:23:44.669Z,2.30
2018-04-30T17:26:10.735Z,2.03
2018-04-30T17:28:36.828Z,1.92
2018-04-30T17:31:02.888Z,2.10
2018-04-30T17:33:28.959Z,1.60
2018-04-30T17:35:55.025Z,1.77
2018-04-30T17:38:21.100Z,1.80
2018-04-30T17:40:47.904Z,1.67
2018-04-30T17:43:13.977Z,1.50
2018-04-30T17:45:40.042Z,1.50
2018-04-30T17:48:06.135Z,1.83
2018-04-30T17:50:32.196Z,1.70
2018-04-30T17:52:58.255Z,1.60
2018-04-30T17:55:24.332Z,1.90
2018-04-30T17:57:50.395Z,1.47
2018-04-30T18:00:16.468Z,1.60
2018-04-30T18:02:42.531Z,1.77
2018-04-30T18:05:08.608Z,1.67
2018-04-30T18:07:34.660Z,1.40
2018-04-30T18:10:00.713Z,1.30
2018-04-30T18:15:59.072Z,1.83
2018-04-30T18:18:25.135Z,1.70
2018-04-30T18:20:51.228Z,1.50
2018-04-30T18:23:17.290Z,2.20
2018-04-30T18:25:43.363Z,1.83
2018-04-30T18:31:15.755Z,2.43
2018-04-30T18:33:41.832Z,3.97
2018-04-30T18:36:07.904Z,4.40
2018-04-30T18:38:33.960Z,4.83
2018-04-30T18:41:00.036Z,4.67
2018-04-30T18:43:26.844Z,3.60
2018-04-30T18:45:52.922Z,3.90
2018-04-30T18:48:18.992Z,5.03
2018-04-30T18:50:45.081Z,5.67
2018-04-30T18:53:11.144Z,5.23
2018-04-30T18:55:37.206Z,5.63
2018-04-30T18:58:04.020Z,5.77
2018-04-30T19:00:30.083Z,5.77
2018-04-30T19:02:56.148Z,4.77
2018-04-30T19:05:22.216Z,4.57
2018-04-30T19:07:49.033Z,5.93
2018-04-30T19:10:15.101Z,8.43
2018-04-30T19:12:41.180Z,9.90
2018-04-30T19:15:07.243Z,10.27
2018-04-30T19:17:34.049Z,8.03
2018-04-30T19:20:00.107Z,7.50
2018-04-30T19:22:26.916Z,5.67
2018-04-30T19:24:52.984Z,5.33
2018-04-30T19:27:19.059Z,4.10
2018-04-30T19:29:45.132Z,4.50
2018-04-30T19:32:11.956Z,4.63
2018-04-30T19:34:38.760Z,6.10
2018-04-30T19:37:04.903Z,7.17
2018-04-30T19:39:30.912Z,7.57
2018-04-30T19:41:56.968Z,7.03
2018-04-30T19:44:23.786Z,7.13
2018-04-30T19:46:49.885Z,7.40
2018-04-30T19:49:16.699Z,7.30
2018-04-30T19:51:43.501Z,7.23
2018-04-30T19:54:09.567Z,8.73
2018-04-30T19:56:36.411Z,8.63
2018-04-30T19:59:03.216Z,8.00
2018-04-30T20:01:29.271Z,8.57
2018-04-30T20:03:56.084Z,8.23
2018-04-30T20:06:22.152Z,8.90
2018-04-30T20:08:48.325Z,8.47
2018-04-30T20:11:14.321Z,9.30
2018-04-30T20:13:40.376Z,8.60
2018-04-30T20:16:06.449Z,10.30
2018-04-30T20:18:32.512Z,11.10
2018-04-30T20:20:58.575Z,13.77
2018-04-30T20:23:24.662Z,20.63
2018-04-30T20:25:50.744Z,24.80
2018-04-30T20:28:17.544Z,22.93
2018-04-30T20:30:43.608Z,21.80
2018-04-30T20:33:10.408Z,21.93
2018-04-30T20:35:36.477Z,19.27
2018-04-30T20:38:03.319Z,16.53
2018-04-30T20:40:29.393Z,16.93
2018-04-30T20:42:55.476Z,16.03
2018-04-30T20:45:22.290Z,15.33
2018-04-30T20:47:48.364Z,17.03
2018-04-30T20:50:14.424Z,17.33
2018-04-30T20:52:40.567Z,17.70
2018-04-30T20:55:07.607Z,17.17
2018-04-30T20:57:40.244Z,17.97
2018-04-30T21:00:06.358Z,17.50
2018-04-30T21:02:33.149Z,17.23
2018-04-30T21:04:59.223Z,16.77
2018-04-30T21:07:25.299Z,17.90
2018-04-30T21:10:20.796Z,17.30
2018-04-30T21:12:47.888Z,17.57
2018-04-30T21:15:13.952Z,18.73
2018-04-30T21:17:40.056Z,17.87
2018-04-30T21:20:08.104Z,17.13
2018-04-30T21:22:34.935Z,18.43
2018-04-30T21:25:15.592Z,18.23
2018-04-30T21:27:41.656Z,16.90
2018-04-30T21:30:08.462Z,14.13
2018-04-30T21:32:34.599Z,13.50
2018-04-30T21:35:00.656Z,16.67
2018-04-30T21:37:43.028Z,16.57
2018-04-30T21:40:12.731Z,16.33
2018-04-30T21:43:04.497Z,15.13
2018-04-30T21:45:35.220Z,15.20
2018-04-30T21:48:17.604Z,13.27
2018-04-30T21:50:51.265Z,14.57
2018-04-30T21:56:23.681Z,14.70
2018-04-30T21:58:49.771Z,22.30
2018-04-30T22:01:15.840Z,16.50
2018-04-30T22:03:41.957Z,19.77
2018-04-30T22:06:08.033Z,22.50
2018-04-30T22:08:34.847Z,27.40
2018-04-30T22:11:01.681Z,28.73
2018-04-30T22:13:27.760Z,27.50
2018-04-30T22:15:53.835Z,24.33
2018-04-30T22:18:19.908Z,24.23
2018-04-30T22:21:10.604Z,21.40
2018-04-30T22:23:36.675Z,20.60
2018-04-30T22:26:02.760Z,20.57
2018-04-30T22:28:39.956Z,21.10
2018-04-30T22:31:06.040Z,21.90
2018-04-30T22:33:32.103Z,21.97
2018-04-30T22:35:58.188Z,21.47
2018-04-30T22:38:32.454Z,20.90
2018-04-30T22:41:01.933Z,20.90
2018-04-30T22:43:28.748Z,22.27
2018-04-30T22:46:08.073Z,21.77
2018-04-30T22:48:34.157Z,21.93
2018-04-30T22:51:00.239Z,21.70
2018-04-30T22:53:26.313Z,22.30
2018-04-30T22:55:52.438Z,21.47
2018-04-30T22:58:18.515Z,20.80
2018-04-30T23:00:44.579Z,22.73
2018-04-30T23:03:10.645Z,20.43
2018-04-30T23:05:36.711Z,21.23
2018-04-30T23:08:03.517Z,21.27
2018-04-30T23:10:29.592Z,26.27
2018-04-30T23:12:55.660Z,21.40
2018-04-30T23:15:21.754Z,24.37
2018-04-30T23:17:47.816Z,24.23
2018-04-30T23:20:13.867Z,25.73
2018-04-30T23:22:40.673Z,29.13
2018-04-30T23:25:06.747Z,27.93
2018-04-30T23:27:33.557Z,25.40
2018-04-30T23:29:59.624Z,28.40
2018-04-30T23:32:25.696Z,25.90
2018-04-30T23:34:51.757Z,24.23
2018-04-30T23:37:17.824Z,24.33
2018-04-30T23:39:43.888Z,23.00
2018-04-30T23:42:09.960Z,23.70
2018-04-30T23:44:36.019Z,22.97
2018-04-30T23:47:02.093Z,22.87
2018-04-30T23:49:28.172Z,22.50
2018-04-30T23:51:54.236Z,21.80
2018-04-30T23:54:21.048Z,21.17
2018-04-30T23:56:47.141Z,20.90
2018-04-30T23:59:13.220Z,19.53
